Time;durP1;ratioP1;P1;durP2;ratioP2;P2;SDS_P1;SDS_P2;PMS_P1;PMS_P2;Temp;Humidity;BMP_temperature;BMP_pressure;BME280_temperature;BME280_humidity;BME280_pressure;Samples;Min_cycle;Max_cycle;Signal;HPM_P1;HPM_P2
2023/07/03 00:01:21;;;;;;;20.67;14.95;;;20.00;43.60;;;;;;20530;6828;278355;-77
2023/07/03 00:03:51;;;;;;;16.40;14.45;;;20.10;42.70;;;;;;20542;6828;311244;-77
2023/07/03 00:06:15;;;;;;;16.93;13.37;;;20.40;42.80;;;;;;20740;6828;117442;-77
2023/07/03 00:08:40;;;;;;;17.15;12.60;;;20.30;42.70;;;;;;20731;6828;118607;-77
2023/07/03 00:11:07;;;;;;;17.83;14.65;;;20.00;42.90;;;;;;20538;6829;307000;-77
2023/07/03 00:13:33;;;;;;;17.33;14.30;;;20.10;43.30;;;;;;20543;6829;305115;-77
2023/07/03 00:16:02;;;;;;;16.67;14.87;;;20.30;42.90;;;;;;20475;6847;278833;-77
2023/07/03 00:18:28;;;;;;;13.63;12.00;;;20.50;42.80;;;;;;20711;6829;119661;-77
2023/07/03 00:20:54;;;;;;;17.97;12.63;;;20.30;42.80;;;;;;20741;6829;118108;-78
2023/07/03 00:23:23;;;;;;;17.53;15.03;;;20.10;43.80;;;;;;20536;6829;307135;-78
2023/07/03 00:25:48;;;;;;;17.53;11.90;;;20.00;43.40;;;;;;20746;6829;118670;-77
2023/07/03 00:28:17;;;;;;;17.30;14.47;;;19.90;43.40;;;;;;20531;6829;336561;-77
2023/07/03 00:30:43;;;;;;;17.33;12.43;;;20.00;43.50;;;;;;20741;6829;123405;-78
2023/07/03 00:33:08;;;;;;;16.63;12.40;;;19.90;43.40;;;;;;20759;6829;117490;-77
2023/07/03 00:35:34;;;;;;;17.20;14.37;;;19.70;43.80;;;;;;20549;6829;307499;-76
2023/07/03 00:38:00;;;;;;;16.67;13.17;;;19.70;44.20;;;;;;20758;6829;117460;-77
2023/07/03 00:40:26;;;;;;;17.12;14.73;;;19.70;43.80;;;;;;20516;6829;278083;-77
2023/07/03 00:42:52;;;;;;;19.90;15.43;;;19.90;44.10;;;;;;20535;6829;277629;-76
2023/07/03 00:45:17;;;;;;;16.37;14.53;;;20.20;43.80;;;;;;20541;6827;277119;-77
2023/07/03 00:47:43;;;;;;;15.57;12.50;;;20.40;43.50;;;;;;20756;6828;117397;-77
2023/07/03 00:50:09;;;;;;;16.37;14.67;;;20.20;43.40;;;;;;20538;6828;310545;-77
2023/07/03 00:52:35;;;;;;;14.90;13.00;;;20.20;43.60;;;;;;20679;6847;118102;-77
2023/07/03 00:55:02;;;;;;;19.12;14.65;;;20.00;43.60;;;;;;20533;6828;337349;-78
2023/07/03 00:57:27;;;;;;;16.23;14.53;;;20.10;43.70;;;;;;20532;6828;302839;-77
2023/07/03 00:59:53;;;;;;;16.42;14.20;;;20.30;43.10;;;;;;20479;6847;313335;-77
2023/07/03 01:02:46;;;;;;;18.33;13.07;;;20.30;42.80;;;;;;20741;6828;118661;-77
2023/07/03 01:05:22;;;;;;;16.80;12.70;;;20.30;42.80;;;;;;20741;6828;117524;-77
2023/07/03 01:07:47;;;;;;;16.77;12.20;;;19.90;43.30;;;;;;20729;6828;118239;-77
2023/07/03 01:10:12;;;;;;;15.18;13.45;;;19.60;43.60;;;;;;20472;6847;333818;-77
2023/07/03 01:12:38;;;;;;;15.90;12.27;;;19.70;43.90;;;;;;20734;6828;124199;-78
2023/07/03 01:15:05;;;;;;;14.77;12.02;;;19.70;44.10;;;;;;20698;6828;121834;-77
2023/07/03 01:17:32;;;;;;;13.87;12.00;;;19.50;43.90;;;;;;20737;6828;117916;-77
2023/07/03 01:19:58;;;;;;;16.23;12.77;;;19.30;44.10;;;;;;20719;6828;117907;-77
2023/07/03 01:22:31;;;;;;;18.30;14.33;;;19.20;44.40;;;;;;20505;6828;307116;-76
2023/07/03 01:24:56;;;;;;;15.47;12.37;;;19.50;44.90;;;;;;20646;6829;116641;-77
2023/07/03 01:27:22;;;;;;;15.37;13.67;;;19.50;44.60;;;;;;20518;6829;307925;-76
2023/07/03 01:29:47;;;;;;;16.53;12.47;;;19.70;44.50;;;;;;20736;6829;117481;-76
2023/07/03 01:32:14;;;;;;;14.43;12.65;;;19.70;44.30;;;;;;20726;6829;117967;-77
2023/07/03 01:34:40;;;;;;;14.30;11.40;;;19.60;44.50;;;;;;20726;6829;120941;-77
2023/07/03 01:37:06;;;;;;;16.73;14.03;;;19.70;44.50;;;;;;20515;6829;325920;-76
2023/07/03 01:39:31;;;;;;;17.30;14.43;;;19.70;44.40;;;;;;20533;6829;277358;-77
2023/07/03 01:41:57;;;;;;;17.48;14.27;;;20.00;43.70;;;;;;20455;6847;308663;-76
2023/07/03 01:44:23;;;;;;;15.93;12.63;;;20.40;43.40;;;;;;20718;6829;119001;-77
2023/07/03 01:46:48;;;;;;;18.13;14.20;;;20.20;43.30;;;;;;20532;6829;306655;-76
2023/07/03 01:49:14;;;;;;;16.47;11.70;;;20.10;43.20;;;;;;20744;6829;117967;-76
2023/07/03 01:51:43;;;;;;;15.82;13.88;;;20.10;43.10;;;;;;20520;6829;305525;-76
2023/07/03 01:54:13;;;;;;;19.27;15.03;;;20.20;43.10;;;;;;20481;6829;308186;-76
2023/07/03 01:56:39;;;;;;;15.83;12.27;;;20.50;42.60;;;;;;20700;6827;118440;-76
2023/07/03 01:59:05;;;;;;;16.57;11.97;;;20.30;42.70;;;;;;20740;6828;117578;-76
2023/07/03 02:01:31;;;;;;;16.07;11.50;;;20.00;43.20;;;;;;20703;6828;117436;-76
2023/07/03 02:04:01;;;;;;;18.77;14.33;;;19.80;43.90;;;;;;20502;6828;282706;-76
2023/07/03 02:06:27;;;;;;;16.93;14.30;;;20.20;43.30;;;;;;20487;6828;316678;-76
2023/07/03 02:08:54;;;;;;;16.80;12.60;;;20.20;43.20;;;;;;20721;6828;118790;-77
2023/07/03 02:11:22;;;;;;;15.93;13.53;;;20.20;43.30;;;;;;20527;6828;308007;-76
2023/07/03 02:13:47;;;;;;;17.60;12.83;;;20.20;43.30;;;;;;20760;6828;117856;-76
2023/07/03 02:16:15;;;;;;;15.73;12.80;;;19.80;43.60;;;;;;20745;6828;118336;-76
2023/07/03 02:18:39;;;;;;;15.43;12.50;;;19.80;43.60;;;;;;20671;6847;118340;-77
2023/07/03 02:21:05;;;;;;;16.73;13.60;;;19.50;43.90;;;;;;20533;6828;289056;-77
2023/07/03 02:23:30;;;;;;;16.83;14.13;;;19.70;43.80;;;;;;20531;6828;277706;-76
2023/07/03 02:25:56;;;;;;;16.23;13.88;;;20.00;43.20;;;;;;20544;6828;327444;-76
2023/07/03 02:28:22;;;;;;;15.63;12.63;;;20.20;43.20;;;;;;20734;6828;118630;-76
2023/07/03 02:30:48;;;;;;;16.20;14.13;;;20.10;43.10;;;;;;20528;6828;277910;-77
2023/07/03 02:33:13;;;;;;;18.20;14.23;;;20.20;42.90;;;;;;20540;6828;282570;-76
2023/07/03 02:35:41;;;;;;;16.70;11.67;;;20.40;42.70;;;;;;20743;6829;117859;-77
2023/07/03 02:38:07;;;;;;;14.23;11.67;;;19.90;42.60;;;;;;20744;6829;117388;-77
2023/07/03 02:40:33;;;;;;;14.57;12.17;;;19.90;43.20;;;;;;20719;6829;118499;-78
2023/07/03 02:42:58;;;;;;;16.47;14.67;;;19.60;43.60;;;;;;20533;6829;340675;-77
2023/07/03 02:45:23;;;;;;;16.23;14.10;;;19.70;43.60;;;;;;20538;6829;286732;-79
2023/07/03 02:47:49;;;;;;;17.97;14.10;;;20.00;43.40;;;;;;20538;6829;287474;-76
2023/07/03 02:50:15;;;;;;;18.73;13.82;;;20.30;43.20;;;;;;20533;6829;277541;-80
2023/07/03 02:52:41;;;;;;;13.90;12.37;;;20.20;43.10;;;;;;20730;6829;118862;-78
2023/07/03 02:55:07;;;;;;;17.50;12.77;;;20.20;43.10;;;;;;20793;6829;117622;-76
2023/07/03 02:57:32;;;;;;;14.13;12.20;;;19.80;43.50;;;;;;20816;6829;123289;-76
2023/07/03 02:59:58;;;;;;;16.77;13.83;;;19.50;43.90;;;;;;20605;6829;305527;-76
2023/07/03 03:02:23;;;;;;;15.63;12.27;;;19.60;44.20;;;;;;20797;6829;117975;-75
2023/07/03 03:04:49;;;;;;;15.10;13.50;;;19.60;44.30;;;;;;20595;6829;306680;-76
2023/07/03 03:07:16;;;;;;;16.53;12.80;;;19.80;44.50;;;;;;20774;6829;117942;-76
2023/07/03 03:09:42;;;;;;;16.77;12.67;;;19.70;44.40;;;;;;20751;6827;118992;-77
2023/07/03 03:12:08;;;;;;;14.87;11.53;;;19.30;45.10;;;;;;20751;6828;119058;-76
2023/07/03 03:14:34;;;;;;;17.03;13.70;;;19.30;45.10;;;;;;20501;6828;311654;-77
2023/07/03 03:17:00;;;;;;;15.77;12.40;;;19.40;45.40;;;;;;20754;6828;119913;-76
2023/07/03 03:19:25;;;;;;;14.47;11.90;;;19.40;45.40;;;;;;20751;6828;121514;-77
2023/07/03 03:21:52;;;;;;;15.30;12.17;;;19.20;45.80;;;;;;20735;6828;118819;-76
2023/07/03 03:24:17;;;;;;;20.73;15.10;;;19.10;45.70;;;;;;20540;6828;306677;-76
2023/07/03 03:26:44;;;;;;;16.77;14.10;;;19.40;45.30;;;;;;20536;6828;282154;-76
2023/07/03 03:29:10;;;;;;;13.90;11.90;;;19.80;44.80;;;;;;20747;6828;117963;-76
2023/07/03 03:31:35;;;;;;;15.60;11.60;;;19.70;44.60;;;;;;20667;6847;117912;-76
2023/07/03 03:34:01;;;;;;;16.70;13.77;;;19.50;44.80;;;;;;20538;6828;277214;-77
2023/07/03 03:36:27;;;;;;;19.43;13.67;;;19.60;44.60;;;;;;20738;6828;123671;-77
2023/07/03 03:38:53;;;;;;;17.80;14.50;;;19.60;44.60;;;;;;20535;6828;340961;-77
2023/07/03 03:41:18;;;;;;;16.67;13.95;;;19.80;44.50;;;;;;20529;6828;303624;-77
2023/07/03 03:43:47;;;;;;;14.27;11.90;;;20.10;44.00;;;;;;20752;6828;117924;-77
2023/07/03 03:46:12;;;;;;;17.90;14.13;;;20.00;44.00;;;;;;20532;6829;278601;-76
2023/07/03 03:48:40;;;;;;;15.43;13.50;;;20.30;43.40;;;;;;20522;6829;322881;-76
2023/07/03 03:51:05;;;;;;;14.50;11.67;;;20.30;43.40;;;;;;20766;6829;118815;-76
2023/07/03 03:53:31;;;;;;;16.67;11.23;;;20.20;43.50;;;;;;20756;6829;117490;-76
2023/07/03 03:55:56;;;;;;;17.47;13.30;;;19.90;43.80;;;;;;20474;6847;308209;-76
2023/07/03 03:58:22;;;;;;;15.35;12.98;;;20.00;43.60;;;;;;20520;6829;311081;-75
2023/07/03 04:00:53;;;;;;;16.77;12.03;;;20.30;43.30;;;;;;20745;6829;118110;-76
2023/07/03 04:03:18;;;;;;;15.30;12.97;;;20.10;43.50;;;;;;20528;6829;324082;-77
2023/07/03 04:05:44;;;;;;;15.73;14.10;;;20.20;44.70;;;;;;20475;6847;351215;-77
2023/07/03 04:08:09;;;;;;;16.57;12.37;;;20.40;44.90;;;;;;20741;6829;123707;-76
2023/07/03 04:10:35;;;;;;;16.07;14.17;;;20.20;45.20;;;;;;20459;6847;279493;-76
2023/07/03 04:13:04;;;;;;;16.27;14.47;;;20.20;45.20;;;;;;20535;6829;311638;-79
2023/07/03 04:15:29;;;;;;;14.30;12.33;;;20.30;45.10;;;;;;20763;6829;119470;-77
2023/07/03 04:17:55;;;;;;;13.73;11.33;;;20.20;45.30;;;;;;20751;6829;117895;-77
2023/07/03 04:20:20;;;;;;;16.17;13.40;;;19.80;45.50;;;;;;20538;6827;310857;-77
2023/07/03 04:22:47;;;;;;;14.37;12.03;;;19.90;45.00;;;;;;20744;6828;120881;-76
2023/07/03 04:25:13;;;;;;;14.63;11.50;;;19.80;45.00;;;;;;20760;6828;117259;-77
2023/07/03 04:27:38;;;;;;;13.75;11.88;;;19.60;45.10;;;;;;20758;6828;118705;-77
2023/07/03 04:30:04;;;;;;;12.67;10.97;;;19.40;45.40;;;;;;20742;6828;117505;-76
2023/07/03 04:32:30;;;;;;;15.57;12.10;;;19.20;46.20;;;;;;20704;6828;119098;-76
2023/07/03 04:34:57;;;;;;;17.10;14.20;;;19.20;46.10;;;;;;20383;6828;297913;-74
2023/07/03 04:37:26;;;;;;;15.45;13.82;;;19.40;46.80;;;;;;20505;6828;308184;-75
2023/07/03 04:39:47;;;;;;;20.42;12.90;;;19.80;46.20;;;;;;20710;6828;118896;-79
2023/07/03 04:42:13;;;;;;;15.37;13.67;;;19.80;45.80;;;;;;20487;6828;310375;-76
2023/07/03 04:44:41;;;;;;;18.40;11.63;;;20.00;45.50;;;;;;20733;6828;118651;-79
2023/07/03 04:47:07;;;;;;;15.67;12.80;;;19.90;45.40;;;;;;20543;6828;278427;-75
2023/07/03 04:49:33;;;;;;;16.23;13.45;;;20.10;44.70;;;;;;20479;6847;337379;-76
2023/07/03 04:52:01;;;;;;;17.45;13.55;;;20.60;44.10;;;;;;20533;6828;308838;-79
2023/07/03 04:54:30;;;;;;;15.87;11.57;;;20.40;44.40;;;;;;20734;6828;118240;-78
2023/07/03 04:56:56;;;;;;;14.47;11.80;;;20.40;44.40;;;;;;20751;6829;118500;-77
2023/07/03 04:59:21;;;;;;;17.85;13.70;;;20.10;45.00;;;;;;20546;6829;277167;-78
2023/07/03 05:01:47;;;;;;;13.10;11.60;;;20.30;45.50;;;;;;20723;6829;123633;-77
2023/07/03 05:04:12;;;;;;;16.08;13.55;;;20.20;45.40;;;;;;20520;6829;307071;-77
2023/07/03 05:10:04;;;;;;;14.13;12.27;;;20.30;44.40;;;;;;20469;6829;320142;-77
2023/07/03 05:12:29;;;;;;;14.73;11.63;;;20.60;43.40;;;;;;20728;6829;117900;-75
2023/07/03 05:14:56;;;;;;;12.33;11.03;;;20.40;44.00;;;;;;20706;6829;120635;-75
2023/07/03 05:17:21;;;;;;;14.15;12.48;;;20.40;44.00;;;;;;20513;6829;336580;-75
2023/07/03 05:19:50;;;;;;;13.63;10.80;;;20.60;44.40;;;;;;20718;6829;117857;-75
2023/07/03 05:22:16;;;;;;;14.05;12.25;;;20.60;43.90;;;;;;20516;6829;311316;-77
2023/07/03 05:24:41;;;;;;;12.50;10.13;;;20.80;43.50;;;;;;20667;6847;118559;-76
2023/07/03 05:27:07;;;;;;;11.13;9.80;;;20.80;43.60;;;;;;20748;6829;121297;-78
2023/07/03 05:29:32;;;;;;;13.17;11.73;;;20.70;43.70;;;;;;20538;6829;277971;-78
2023/07/03 05:32:00;;;;;;;13.00;11.63;;;20.90;43.30;;;;;;20726;6827;118650;-75
2023/07/03 05:34:23;;;;;;;13.20;11.77;;;21.00;44.20;;;;;;20722;6828;150511;-76
2023/07/03 05:36:49;;;;;;;14.97;13.20;;;20.90;44.00;;;;;;20522;6828;278900;-76
2023/07/03 05:39:15;;;;;;;15.73;12.10;;;21.10;45.40;;;;;;20750;6828;118587;-75
2023/07/03 05:41:41;;;;;;;15.95;13.43;;;21.10;45.10;;;;;;20514;6828;280889;-76
2023/07/03 05:44:07;;;;;;;13.00;11.60;;;21.50;44.80;;;;;;20744;6828;117949;-75
2023/07/03 05:46:32;;;;;;;14.20;12.73;;;21.50;44.40;;;;;;20496;6828;307542;-75
2023/07/03 05:48:59;;;;;;;15.52;12.32;;;22.10;42.40;;;;;;20526;6828;309014;-75
2023/07/03 05:51:26;;;;;;;13.40;10.83;;;22.10;42.40;;;;;;20743;6828;119243;-76
2023/07/03 05:53:54;;;;;;;14.37;11.90;;;22.10;42.40;;;;;;20533;6828;301479;-77
2023/07/03 05:56:20;;;;;;;12.50;11.30;;;22.20;41.20;;;;;;20546;6828;281666;-75
2023/07/03 05:58:45;;;;;;;16.10;10.75;;;22.50;40.60;;;;;;20711;6828;118814;-74
2023/07/03 06:01:11;;;;;;;13.07;11.63;;;22.40;40.90;;;;;;20494;6828;306691;-75
2023/07/03 06:03:36;;;;;;;14.40;10.45;;;22.50;41.20;;;;;;20683;6847;118877;-72
2023/07/03 06:06:04;;;;;;;12.20;10.00;;;22.40;41.40;;;;;;20749;6829;66261;-76
2023/07/03 06:08:27;;;;;;;13.80;11.73;;;22.20;41.80;;;;;;20504;6828;280893;-74
2023/07/03 06:10:53;;;;;;;12.40;11.20;;;22.40;41.70;;;;;;20514;6829;277601;-74
2023/07/03 06:13:19;;;;;;;13.00;11.70;;;22.80;41.20;;;;;;20513;6829;300681;-74
2023/07/03 06:15:46;;;;;;;12.35;10.40;;;23.00;40.90;;;;;;20733;6829;117498;-74
2023/07/03 06:18:12;;;;;;;10.67;9.57;;;23.00;40.90;;;;;;20729;6829;119064;-77
2023/07/03 06:20:37;;;;;;;10.93;9.80;;;22.80;41.40;;;;;;20706;6829;120019;-74
2023/07/03 06:23:04;;;;;;;12.40;10.10;;;22.50;42.20;;;;;;20746;6829;118737;-74
2023/07/03 06:25:30;;;;;;;13.60;10.60;;;22.40;42.10;;;;;;20671;6847;117770;-74
2023/07/03 06:27:56;;;;;;;12.95;11.35;;;22.40;42.60;;;;;;20533;6829;337028;-75
2023/07/03 06:30:22;;;;;;;13.43;11.97;;;22.70;42.80;;;;;;20512;6829;323013;-77
2023/07/03 06:32:47;;;;;;;13.03;10.37;;;23.20;42.50;;;;;;20609;6829;118784;-74
2023/07/03 06:35:13;;;;;;;11.85;10.57;;;23.20;42.20;;;;;;20535;6829;281862;-75
2023/07/03 06:37:38;;;;;;;12.00;10.77;;;23.40;41.90;;;;;;20470;6847;337381;-74
2023/07/03 06:40:09;;;;;;;10.60;9.53;;;23.80;40.90;;;;;;20742;6829;124283;-74
2023/07/03 06:42:30;;;;;;;12.10;10.73;;;23.70;40.90;;;;;;20498;6829;277612;-73
2023/07/03 06:44:56;;;;;;;11.40;9.70;;;23.80;41.10;;;;;;20742;6827;117680;-74
2023/07/03 06:47:22;;;;;;;11.53;9.03;;;23.80;41.10;;;;;;20723;6828;121207;-74
2023/07/03 06:49:47;;;;;;;10.73;8.77;;;23.70;41.10;;;;;;20753;6828;117259;-74
2023/07/03 06:52:13;;;;;;;12.00;8.27;;;23.50;41.20;;;;;;20735;6828;117042;-75
2023/07/03 06:54:39;;;;;;;12.23;10.02;;;23.50;40.60;;;;;;20523;6828;278044;-75
2023/07/03 06:57:05;;;;;;;10.77;9.63;;;23.50;40.60;;;;;;20530;6828;312448;-74
2023/07/03 06:59:31;;;;;;;10.13;8.63;;;23.90;40.50;;;;;;20732;6828;119390;-74
2023/07/03 07:01:57;;;;;;;13.77;9.95;;;23.90;40.40;;;;;;20514;6828;310817;-74
2023/07/03 07:04:26;;;;;;;8.87;7.97;;;24.10;39.10;;;;;;20724;6828;118528;-75
2023/07/03 07:06:48;;;;;;;8.07;7.30;;;24.10;39.40;;;;;;20735;6828;117262;-74
2023/07/03 07:09:15;;;;;;;10.67;9.33;;;23.80;39.60;;;;;;20534;6828;299052;-74
2023/07/03 07:11:39;;;;;;;8.73;7.83;;;24.00;39.20;;;;;;20741;6828;114625;-74
2023/07/03 07:14:05;;;;;;;11.97;7.97;;;24.00;39.30;;;;;;20765;6828;117082;-74
2023/07/03 07:16:34;;;;;;;10.63;8.97;;;23.90;39.40;;;;;;20515;6828;278820;-75
2023/07/03 07:19:00;;;;;;;9.17;7.57;;;24.10;39.00;;;;;;20758;6828;117490;-74
2023/07/03 07:21:26;;;;;;;11.15;8.75;;;24.30;39.10;;;;;;20527;6829;311382;-74
2023/07/03 07:23:51;;;;;;;10.57;7.93;;;24.50;38.40;;;;;;20752;6829;117479;-74
2023/07/03 07:26:17;;;;;;;10.38;8.55;;;24.50;38.20;;;;;;20512;6829;307505;-74
2023/07/03 07:28:43;;;;;;;11.87;8.30;;;24.70;38.10;;;;;;20717;6829;121385;-74
2023/07/03 07:31:10;;;;;;;12.20;8.33;;;24.60;38.00;;;;;;20528;6829;301296;-74
2023/07/03 07:33:37;;;;;;;9.17;8.30;;;25.40;37.60;;;;;;20526;6829;309583;-74
2023/07/03 07:36:03;;;;;;;9.23;8.00;;;25.40;37.30;;;;;;20747;6829;118411;-75
2023/07/03 07:38:28;;;;;;;8.33;7.40;;;25.60;37.60;;;;;;20706;6829;118354;-75
2023/07/03 07:41:02;;;;;;;9.80;8.20;;;25.80;37.60;;;;;;20531;6829;340515;-75
2023/07/03 07:43:26;;;;;;;9.40;8.40;;;26.20;36.40;;;;;;20520;6829;277272;-75
2023/07/03 07:45:52;;;;;;;12.03;8.53;;;26.60;35.90;;;;;;20543;6829;307533;-75
2023/07/03 07:48:18;;;;;;;10.65;8.32;;;27.10;34.40;;;;;;20522;6829;278666;-74
2023/07/03 07:50:43;;;;;;;10.27;8.20;;;27.50;34.60;;;;;;20709;6829;123676;-75
2023/07/03 07:53:09;;;;;;;10.50;8.57;;;27.50;34.30;;;;;;20536;6829;300653;-75
2023/07/03 07:55:38;;;;;;;10.37;7.00;;;27.50;33.70;;;;;;20740;6827;120203;-74
2023/07/03 07:58:03;;;;;;;11.27;7.43;;;27.20;34.00;;;;;;20755;6828;117514;-75
2023/07/03 08:00:31;;;;;;;12.93;7.03;;;26.20;34.10;;;;;;20709;6828;121553;-77
2023/07/03 08:02:57;;;;;;;9.90;8.17;;;26.20;34.60;;;;;;20534;6828;306981;-75
2023/07/03 08:05:23;;;;;;;12.23;8.52;;;26.00;34.10;;;;;;20517;6828;306630;-76
2023/07/03 08:07:48;;;;;;;9.40;8.30;;;26.10;34.30;;;;;;20535;6828;312942;-76
2023/07/03 08:10:15;;;;;;;11.13;8.20;;;26.00;34.90;;;;;;20519;6828;286932;-75
2023/07/03 08:12:41;;;;;;;10.90;8.23;;;25.60;35.20;;;;;;20710;6828;118939;-76
2023/07/03 08:15:08;;;;;;;12.25;8.32;;;25.60;34.90;;;;;;20533;6828;335670;-76
2023/07/03 08:17:34;;;;;;;11.07;7.40;;;25.60;35.80;;;;;;20735;6828;117261;-75
2023/07/03 08:20:02;;;;;;;10.98;7.90;;;25.50;35.70;;;;;;20509;6828;331651;-75
2023/07/03 08:22:27;;;;;;;11.43;8.38;;;25.40;35.50;;;;;;20516;6828;307918;-75
2023/07/03 08:24:54;;;;;;;10.23;7.50;;;25.40;35.50;;;;;;20685;6828;118165;-75
2023/07/03 08:27:19;;;;;;;17.53;8.23;;;25.40;35.50;;;;;;20743;6828;118121;-75
2023/07/03 08:29:45;;;;;;;8.63;6.97;;;25.10;36.00;;;;;;20746;6828;119409;-75
2023/07/03 08:32:15;;;;;;;11.18;7.35;;;24.90;36.40;;;;;;20734;6829;118237;-77
2023/07/03 08:34:39;;;;;;;8.43;6.13;;;24.90;36.80;;;;;;20718;6829;117604;-77
2023/07/03 08:37:05;;;;;;;8.57;7.60;;;25.00;36.90;;;;;;20745;6829;118677;-77
2023/07/03 08:39:31;;;;;;;11.37;8.20;;;25.20;36.80;;;;;;20543;6829;307019;-75
2023/07/03 08:42:04;;;;;;;7.50;6.77;;;25.60;35.70;;;;;;20720;6829;117339;-75
2023/07/03 08:44:30;;;;;;;12.60;8.07;;;26.10;34.50;;;;;;20158;6829;343416;-75
2023/07/03 08:46:58;;;;;;;10.03;7.50;;;26.10;34.60;;;;;;20721;6829;117472;-79
2023/07/03 08:49:25;;;;;;;9.00;7.00;;;26.10;34.60;;;;;;20733;6829;118666;-77
2023/07/03 08:51:51;;;;;;;10.93;7.17;;;25.90;34.80;;;;;;20723;6829;119192;-77
2023/07/03 08:54:17;;;;;;;10.48;7.62;;;25.60;34.90;;;;;;20522;6829;278410;-77
2023/07/03 08:56:43;;;;;;;11.27;6.97;;;25.90;33.60;;;;;;20700;6829;118612;-77
2023/07/03 08:59:09;;;;;;;11.00;7.70;;;26.00;33.00;;;;;;20538;6829;277952;-81
2023/07/03 09:01:35;;;;;;;10.43;7.80;;;26.00;33.00;;;;;;20525;6829;340427;-77
2023/07/03 09:04:40;;;;;;;10.30;7.50;;;26.30;32.90;;;;;;20509;6829;300456;-76
2023/07/03 09:07:07;;;;;;;12.03;7.50;;;26.70;32.60;;;;;;20534;6827;307426;-74
2023/07/03 09:09:43;;;;;;;9.43;7.50;;;26.90;31.90;;;;;;20526;6828;281988;-75
2023/07/03 09:12:15;;;;;;;7.40;6.37;;;26.90;31.30;;;;;;20729;6828;118237;-75
2023/07/03 09:14:40;;;;;;;9.48;7.22;;;26.60;32.00;;;;;;20499;6828;307062;-75
2023/07/03 09:17:09;;;;;;;12.00;7.40;;;26.60;32.40;;;;;;20518;6828;278438;-75
2023/07/03 09:19:37;;;;;;;11.20;7.57;;;26.70;32.20;;;;;;20542;6828;285287;-76
2023/07/03 09:22:02;;;;;;;9.38;7.57;;;26.80;31.00;;;;;;20516;6828;289116;-75
2023/07/03 09:24:36;;;;;;;8.17;6.67;;;26.90;31.40;;;;;;20743;6828;121192;-76
2023/07/03 09:27:21;;;;;;;9.97;7.30;;;26.80;32.00;;;;;;20513;6828;307117;-75
2023/07/03 09:29:47;;;;;;;10.63;6.73;;;26.90;32.30;;;;;;20732;6828;118667;-74
2023/07/03 09:32:13;;;;;;;9.90;6.87;;;26.80;32.30;;;;;;20521;6828;307204;-75
2023/07/03 09:35:18;;;;;;;11.75;7.72;;;26.90;31.90;;;;;;20476;6828;340621;-75
2023/07/03 09:37:43;;;;;;;14.77;6.93;;;27.10;30.90;;;;;;20716;6828;117339;-78
2023/07/03 09:40:15;;;;;;;12.23;6.50;;;26.80;31.40;;;;;;20744;6828;117308;-79
2023/07/03 09:42:41;;;;;;;9.88;7.03;;;26.50;31.80;;;;;;20518;6828;324029;-81
2023/07/03 09:45:13;;;;;;;10.50;6.10;;;26.50;31.10;;;;;;20742;6829;117786;-75
2023/07/03 09:47:40;;;;;;;12.37;6.97;;;26.50;31.40;;;;;;20493;6829;278212;-77
2023/07/03 09:50:04;;;;;;;10.50;7.00;;;26.70;30.80;;;;;;20505;6829;341705;-75
2023/07/03 09:52:29;;;;;;;9.07;6.77;;;27.30;31.50;;;;;;20715;6829;119436;-75
2023/07/03 09:54:55;;;;;;;9.93;6.78;;;27.50;31.00;;;;;;20521;6829;308335;-75
2023/07/03 09:57:25;;;;;;;10.50;6.77;;;27.90;29.80;;;;;;20483;6829;311408;-75
2023/07/03 09:59:51;;;;;;;8.20;5.57;;;27.90;29.70;;;;;;20737;6829;118979;-75
2023/07/03 10:02:17;;;;;;;8.38;6.80;;;27.70;29.90;;;;;;20504;6829;281707;-75
2023/07/03 10:04:46;;;;;;;10.95;6.75;;;27.60;29.60;;;;;;20504;6829;286837;-75
2023/07/03 10:07:14;;;;;;;11.73;6.53;;;27.70;29.40;;;;;;20735;6829;118132;-75
2023/07/03 10:09:41;;;;;;;9.97;6.40;;;27.50;30.00;;;;;;20732;6829;117729;-75
2023/07/03 10:12:11;;;;;;;8.10;6.07;;;27.30;30.70;;;;;;20719;6829;119988;-76
2023/07/03 10:14:49;;;;;;;11.00;5.60;;;27.30;31.20;;;;;;20697;6829;117888;-75
2023/07/03 10:17:15;;;;;;;10.40;6.83;;;27.30;30.50;;;;;;20511;6829;308550;-75
2023/07/03 10:19:44;;;;;;;7.50;6.60;;;28.10;29.40;;;;;;20523;6827;339378;-75
2023/07/03 10:22:11;;;;;;;7.93;6.30;;;28.40;29.10;;;;;;20512;6828;277999;-75
2023/07/03 10:24:38;;;;;;;9.88;6.70;;;28.30;29.10;;;;;;20514;6828;340485;-75
2023/07/03 10:27:25;;;;;;;8.07;5.90;;;28.20;29.60;;;;;;20744;6828;68208;-79
2023/07/03 10:30:01;;;;;;;6.07;5.57;;;28.20;29.50;;;;;;20922;6712;118223;-74
2023/07/03 10:32:37;;;;;;;7.43;6.23;;;28.00;29.90;;;;;;20753;6694;299137;-75
2023/07/03 10:35:13;;;;;;;7.73;5.60;;;28.10;29.70;;;;;;21038;6679;123398;-73
2023/07/03 10:38:02;;;;;;;7.87;6.53;;;28.40;29.50;;;;;;20656;6684;305362;-76
2023/07/03 10:40:37;;;;;;;7.47;5.67;;;28.30;29.40;;;;;;20947;6684;116753;-72
2023/07/03 10:43:13;;;;;;;11.63;6.10;;;28.40;29.60;;;;;;20955;6709;117237;-73
2023/07/03 10:45:49;;;;;;;7.40;5.53;;;28.20;29.60;;;;;;20929;6709;117070;-75
2023/07/03 10:48:24;;;;;;;8.17;6.43;;;28.10;29.80;;;;;;20488;6810;276732;-76
2023/07/03 10:51:04;;;;;;;7.67;5.40;;;28.40;28.90;;;;;;20951;6707;119495;-76
2023/07/03 10:53:57;;;;;;;8.40;6.40;;;28.50;28.60;;;;;;20697;6717;305436;-74
2023/07/03 10:56:32;;;;;;;5.70;4.97;;;28.50;28.60;;;;;;20832;6718;121061;-72
2023/07/03 10:59:19;;;;;;;6.20;5.07;;;28.40;28.70;;;;;;20990;6709;117459;-75
2023/07/03 11:02:26;;;;;;;5.00;4.50;;;28.20;29.10;;;;;;20931;6702;116717;-74
2023/07/03 11:05:15;;;;;;;8.27;4.50;;;27.90;29.40;;;;;;20975;6706;116920;-77
2023/07/03 11:07:54;;;;;;;4.80;4.20;;;28.00;30.00;;;;;;20590;6758;306598;-73
2023/07/03 11:10:36;;;;;;;4.47;3.90;;;28.00;30.00;;;;;;20777;6687;303430;-75
2023/07/03 11:13:22;;;;;;;4.30;3.90;;;28.60;29.00;;;;;;20810;6680;275074;-77
2023/07/03 11:16:07;;;;;;;5.47;3.60;;;29.10;28.30;;;;;;20800;6691;304334;-75
2023/07/03 11:18:56;;;;;;;4.30;3.80;;;29.50;27.50;;;;;;20681;6724;306199;-75
2023/07/03 11:21:41;;;;;;;4.77;4.37;;;29.70;27.00;;;;;;20721;6709;305830;-73
2023/07/03 11:24:30;;;;;;;5.77;3.80;;;29.80;26.70;;;;;;20951;6709;117453;-74
2023/07/03 11:27:35;;;;;;;6.97;3.20;;;29.50;27.40;;;;;;20858;6709;117884;-76
2023/07/03 11:30:11;;;;;;;5.07;3.87;;;29.10;28.00;;;;;;20713;6697;291565;-75
2023/07/03 11:32:46;;;;;;;4.72;4.22;;;29.20;27.60;;;;;;20578;6731;317401;-74
2023/07/03 11:35:23;;;;;;;4.40;4.00;;;29.30;27.40;;;;;;20921;6714;116817;-77
2023/07/03 11:38:03;;;;;;;3.90;3.23;;;28.90;27.50;;;;;;20709;6699;117398;-75
2023/07/03 11:40:39;;;;;;;4.90;3.78;;;28.40;27.70;;;;;;20679;6718;308034;-76
2023/07/03 11:43:15;;;;;;;4.13;3.67;;;28.50;28.60;;;;;;20673;6770;306147;-76
2023/07/03 11:45:57;;;;;;;4.37;3.13;;;28.50;28.50;;;;;;20909;6717;119412;-76
2023/07/03 11:48:34;;;;;;;4.10;3.70;;;28.60;28.70;;;;;;20828;6744;119498;-75
2023/07/03 11:51:11;;;;;;;4.23;3.70;;;28.30;28.70;;;;;;20831;6729;123818;-76
2023/07/03 11:53:49;;;;;;;3.93;3.20;;;28.10;29.10;;;;;;20673;6711;281100;-76
2023/07/03 11:56:31;;;;;;;4.40;3.30;;;28.30;29.00;;;;;;20808;6726;119995;-79
2023/07/03 11:59:23;;;;;;;9.43;2.70;;;28.30;28.90;;;;;;20931;6711;117029;-76
2023/07/03 12:02:15;;;;;;;4.78;3.00;;;28.10;28.90;;;;;;20764;6697;335231;-76
2023/07/03 12:04:50;;;;;;;3.83;3.40;;;28.10;28.50;;;;;;20148;6795;306678;-76
2023/07/03 12:07:27;;;;;;;3.30;3.00;;;28.30;28.50;;;;;;20575;6724;290216;-76
2023/07/03 12:10:22;;;;;;;3.33;2.90;;;28.20;28.40;;;;;;20855;6736;117093;-77
2023/07/03 12:13:27;;;;;;;4.27;2.80;;;28.10;28.90;;;;;;20743;6792;121754;-76
2023/07/03 12:16:06;;;;;;;3.47;3.07;;;27.90;29.40;;;;;;20666;6730;306358;-76
2023/07/03 12:18:39;;;;;;;3.87;2.87;;;28.10;29.10;;;;;;20839;6724;119464;-76
2023/07/03 12:21:15;;;;;;;4.07;2.90;;;28.10;29.10;;;;;;20657;6736;307912;-76
2023/07/03 12:23:51;;;;;;;4.23;3.07;;;28.20;28.90;;;;;;20835;6747;117011;-76
2023/07/03 12:26:30;;;;;;;4.47;3.37;;;28.20;29.30;;;;;;20520;6739;309100;-76
2023/07/03 12:29:05;;;;;;;3.60;3.33;;;28.40;29.50;;;;;;20877;6735;117196;-76
2023/07/03 12:31:42;;;;;;;4.60;3.30;;;28.50;29.20;;;;;;20683;6723;276415;-75
2023/07/03 12:34:18;;;;;;;3.33;2.97;;;28.80;29.50;;;;;;20899;6738;119177;-76
2023/07/03 12:36:57;;;;;;;3.27;2.97;;;28.80;28.90;;;;;;20775;6738;117617;-76
2023/07/03 12:39:33;;;;;;;4.00;3.23;;;28.70;28.90;;;;;;20641;6742;310739;-76